Time;durP1;ratioP1;P1;durP2;ratioP2;P2;SDS_P1;SDS_P2;PMS_P1;PMS_P2;Temp;Humidity;BMP_temperature;BMP_pressure;BME280_temperature;BME280_humidity;BME280_pressure;Samples;Min_cycle;Max_cycle;Signal;HPM_P1;HPM_P2
2023/08/18 00:01:56;;;;;;;3.33;1.50;;;;;;;16.75;100.00;102061.31;4967139;28;20043;-76
2023/08/18 00:04:24;;;;;;;1.60;1.13;;;;;;;16.75;100.00;102056.84;4970229;28;20047;-77
2023/08/18 00:06:51;;;;;;;2.40;1.20;;;;;;;16.75;100.00;102058.63;4966791;28;20035;-77
2023/08/18 00:09:18;;;;;;;2.25;1.30;;;;;;;16.75;100.00;102048.00;4967277;28;20051;-76
2023/08/18 00:11:45;;;;;;;2.88;1.48;;;;;;;16.74;100.00;102051.53;4964872;28;20058;-77
2023/08/18 00:14:13;;;;;;;2.38;1.17;;;;;;;16.74;100.00;102051.53;4938800;28;20054;-76
2023/08/18 00:16:40;;;;;;;4.40;1.40;;;;;;;16.74;100.00;102054.19;4949381;28;20043;-77
2023/08/18 00:19:08;;;;;;;4.78;1.20;;;;;;;16.74;100.00;102055.06;4962539;28;20043;-76
2023/08/18 00:21:35;;;;;;;3.17;1.38;;;;;;;16.76;100.00;102050.63;4952853;28;20049;-76
2023/08/18 00:24:03;;;;;;;3.10;1.35;;;;;;;16.77;100.00;102046.22;4971074;28;20047;-76
2023/08/18 00:26:32;;;;;;;1.75;1.20;;;;;;;16.75;100.00;102048.88;4985334;28;20054;-76
2023/08/18 00:28:59;;;;;;;1.15;1.10;;;;;;;16.74;100.00;102043.53;4932309;28;20047;-76
2023/08/18 00:31:27;;;;;;;1.30;1.20;;;;;;;16.74;100.00;102041.75;4969217;28;20050;-76
2023/08/18 00:33:54;;;;;;;1.35;1.20;;;;;;;16.74;100.00;102032.91;4960294;28;20047;-76
2023/08/18 00:36:22;;;;;;;1.60;1.25;;;;;;;16.75;100.00;102043.53;4977417;28;20459;-76
2023/08/18 00:38:49;;;;;;;2.53;1.27;;;;;;;16.74;100.00;102035.56;5000743;28;20042;-77
2023/08/18 00:41:17;;;;;;;1.45;1.35;;;;;;;16.72;100.00;102038.22;4970905;28;20058;-76
2023/08/18 00:43:45;;;;;;;2.13;1.48;;;;;;;16.71;100.00;102031.16;4999910;28;20531;-77
2023/08/18 00:46:12;;;;;;;1.20;1.10;;;;;;;16.71;100.00;102030.22;4963221;28;20684;-77
2023/08/18 00:48:47;;;;;;;1.30;1.20;;;;;;;16.67;100.00;102016.09;4971401;28;20050;-77
2023/08/18 00:51:16;;;;;;;2.35;1.45;;;;;;;16.68;100.00;102024.94;4954611;28;20047;-76
2023/08/18 00:53:44;;;;;;;2.00;1.30;;;;;;;16.67;100.00;102015.16;4967637;28;20050;-76
2023/08/18 00:56:13;;;;;;;2.25;1.15;;;;;;;16.66;100.00;102022.28;4970498;28;20066;-76
2023/08/18 00:58:43;;;;;;;3.13;1.52;;;;;;;16.66;100.00;102026.72;4967898;28;20066;-76
2023/08/18 01:01:11;;;;;;;3.22;1.40;;;;;;;16.65;100.00;102022.28;4951655;28;20041;-77
2023/08/18 01:03:39;;;;;;;1.85;1.50;;;;;;;16.64;100.00;102021.41;4967366;28;20042;-76
2023/08/18 01:06:07;;;;;;;3.33;1.60;;;;;;;16.65;100.00;102016.97;4985660;28;20046;-76
2023/08/18 01:08:34;;;;;;;1.73;1.33;;;;;;;16.64;100.00;102007.22;4970777;28;20058;-76
2023/08/18 01:11:11;;;;;;;2.22;1.45;;;;;;;16.63;100.00;102014.28;4974240;28;20090;-76
2023/08/18 01:14:04;;;;;;;2.28;1.27;;;;;;;16.62;100.00;102004.56;4971270;28;20038;-77
2023/08/18 01:16:33;;;;;;;1.52;1.40;;;;;;;16.61;100.00;102001.91;4947919;28;20581;-77
2023/08/18 01:19:03;;;;;;;7.38;1.45;;;;;;;16.60;100.00;102001.03;4982557;28;20061;-76
2023/08/18 01:21:32;;;;;;;1.35;1.20;;;;;;;16.61;100.00;101996.56;4984205;28;20400;-77
2023/08/18 01:24:03;;;;;;;2.15;1.58;;;;;;;16.60;100.00;101993.03;4988354;28;20053;-76
2023/08/18 01:26:30;;;;;;;;;;;;;;;16.61;100.00;101996.56;4990071;28;20047;-76
2023/08/18 01:28:57;;;;;;;3.00;1.70;;;;;;;16.61;100.00;101989.47;4972930;28;19936;-76
2023/08/18 01:31:30;;;;;;;2.85;1.45;;;;;;;16.61;100.00;101977.94;4972891;28;20050;-76
2023/08/18 01:34:06;;;;;;;2.65;1.55;;;;;;;16.61;100.00;101978.81;4955589;28;20523;-76
2023/08/18 01:36:39;;;;;;;2.38;1.63;;;;;;;16.60;100.00;101974.41;4961128;28;20485;-77
2023/08/18 01:39:09;;;;;;;3.15;1.38;;;;;;;16.58;100.00;101970.88;4982014;28;20050;-76
2023/08/18 01:41:39;;;;;;;3.35;1.50;;;;;;;16.59;100.00;101967.31;4981147;28;20051;-78
2023/08/18 01:44:06;;;;;;;1.50;1.40;;;;;;;16.58;100.00;101957.56;4984051;28;20034;-76
2023/08/18 01:46:34;;;;;;;2.30;1.58;;;;;;;16.60;100.00;101962.84;4989189;28;20053;-76
2023/08/18 01:49:02;;;;;;;3.22;1.65;;;;;;;16.60;100.00;101963.75;4949064;28;20061;-76
2023/08/18 01:51:30;;;;;;;1.98;1.73;;;;;;;16.59;100.00;101961.97;4951063;28;20042;-77
2023/08/18 01:53:57;;;;;;;2.55;1.70;;;;;;;16.58;100.00;101962.88;4954952;28;20077;-77
2023/08/18 01:56:26;;;;;;;3.65;1.88;;;;;;;16.59;100.00;101961.97;4972138;28;20069;-77
2023/08/18 01:58:54;;;;;;;4.15;1.92;;;;;;;16.57;100.00;101961.97;4972572;28;20076;-76
2023/08/18 02:01:21;;;;;;;3.88;1.90;;;;;;;16.57;100.00;101964.63;4973236;28;20050;-77
2023/08/18 02:03:49;;;;;;;4.80;2.33;;;;;;;16.58;100.00;101954.91;4935698;28;21788;-77
2023/08/18 02:06:18;;;;;;;1.88;1.70;;;;;;;16.58;100.00;101957.56;4985327;28;20046;-76
2023/08/18 02:08:46;;;;;;;2.92;2.03;;;;;;;16.58;100.00;101954.91;4977572;28;20062;-76
2023/08/18 02:11:14;;;;;;;3.45;1.90;;;;;;;16.57;100.00;101954.00;4972878;28;20047;-76
2023/08/18 02:13:41;;;;;;;3.75;2.10;;;;;;;16.59;100.00;101969.09;4958109;28;20062;-77
2023/08/18 02:16:08;;;;;;;5.10;2.00;;;;;;;16.58;100.00;101954.91;4972548;28;20049;-76
2023/08/18 02:18:36;;;;;;;2.72;1.88;;;;;;;16.58;100.00;101960.22;4938495;28;20054;-76
2023/08/18 02:21:03;;;;;;;3.75;1.90;;;;;;;16.58;100.00;101952.25;4985030;28;20050;-76
2023/08/18 02:23:32;;;;;;;2.05;1.77;;;;;;;16.59;100.00;101946.00;4966024;28;20058;-77
2023/08/18 02:26:05;;;;;;;4.18;2.33;;;;;;;16.58;100.00;101949.59;5001721;28;20053;-76
2023/08/18 02:28:33;;;;;;;3.28;2.22;;;;;;;16.57;100.00;101940.69;4989606;28;20050;-76
2023/08/18 02:31:06;;;;;;;4.03;2.80;;;;;;;16.57;100.00;101934.50;4986940;28;20073;-77
2023/08/18 02:33:35;;;;;;;3.40;2.10;;;;;;;16.58;100.00;101930.97;4942970;28;20492;-76
2023/08/18 02:36:02;;;;;;;3.15;2.47;;;;;;;16.59;100.00;101924.72;4971982;28;20042;-76
2023/08/18 02:38:33;;;;;;;4.82;2.45;;;;;;;16.60;100.00;101928.25;4973403;28;20054;-76
2023/08/18 02:41:00;;;;;;;4.55;2.33;;;;;;;16.61;100.00;101928.25;4983870;28;20042;-76
2023/08/18 02:43:27;;;;;;;4.05;2.30;;;;;;;16.62;100.00;101927.38;4972382;28;20061;-77
2023/08/18 02:45:56;;;;;;;3.75;2.45;;;;;;;16.65;100.00;101929.13;4973120;28;20544;-76
2023/08/18 02:48:27;;;;;;;3.60;2.40;;;;;;;16.65;100.00;101919.38;4974366;28;20046;-76
2023/08/18 02:51:07;;;;;;;3.28;2.20;;;;;;;16.66;100.00;101925.59;4970355;28;20061;-76
2023/08/18 02:53:39;;;;;;;3.78;2.38;;;;;;;16.67;100.00;101922.03;4988559;28;20058;-76
2023/08/18 02:56:07;;;;;;;5.00;2.80;;;;;;;16.65;100.00;101922.03;4967154;28;20054;-76
2023/08/18 02:58:38;;;;;;;2.22;2.03;;;;;;;16.63;100.00;101918.50;4964354;28;20054;-76
2023/08/18 03:01:07;;;;;;;3.13;2.30;;;;;;;16.61;100.00;101917.63;4988765;28;20061;-76
2023/08/18 03:03:34;;;;;;;6.10;2.30;;;;;;;16.62;100.00;101923.84;4989296;28;20042;-76
2023/08/18 03:06:04;;;;;;;3.05;2.30;;;;;;;16.60;100.00;101920.28;4969182;28;20049;-75
2023/08/18 03:08:32;;;;;;;4.45;2.60;;;;;;;16.61;100.00;101922.06;4988271;28;20061;-75
2023/08/18 03:11:01;;;;;;;4.45;2.35;;;;;;;16.59;100.00;101929.16;4983239;28;20059;-76
2023/08/18 03:13:28;;;;;;;3.17;2.35;;;;;;;16.59;100.00;101918.53;4978504;28;20530;-76
2023/08/18 03:15:57;;;;;;;3.45;2.38;;;;;;;16.59;100.00;101927.38;4972197;28;20046;-76
2023/08/18 03:18:26;;;;;;;3.70;2.25;;;;;;;16.58;100.00;101928.28;4972192;28;20504;-75
2023/08/18 03:21:01;;;;;;;5.35;2.70;;;;;;;16.56;100.00;101927.41;4961319;28;20416;-77
2023/08/18 03:23:30;;;;;;;4.15;2.33;;;;;;;16.56;100.00;101927.41;4985973;28;20062;-75
2023/08/18 03:26:00;;;;;;;3.42;2.00;;;;;;;16.58;100.00;101928.28;4972620;28;20042;-77
2023/08/18 03:28:29;;;;;;;4.38;2.92;;;;;;;16.59;100.00;101923.84;4970125;28;20055;-76
2023/08/18 03:31:00;;;;;;;5.10;2.45;;;;;;;16.57;100.00;101927.38;4970469;28;20049;-77
2023/08/18 03:33:30;;;;;;;4.65;2.45;;;;;;;16.59;100.00;101929.16;4977922;28;20055;-76
2023/08/18 03:35:58;;;;;;;2.83;2.53;;;;;;;16.59;100.00;101924.72;4933317;28;20047;-77
2023/08/18 03:38:26;;;;;;;2.60;2.40;;;;;;;16.61;100.00;101938.03;4992241;28;20065;-77
2023/08/18 03:41:03;;;;;;;4.20;2.72;;;;;;;16.60;100.00;101926.50;4972452;28;20054;-76
2023/08/18 03:43:32;;;;;;;2.50;2.30;;;;;;;16.60;100.00;101922.94;4985682;28;20050;-76
2023/08/18 03:46:22;;;;;;;3.53;2.28;;;;;;;16.58;100.00;101915.00;4973854;28;20050;-76
2023/08/18 03:48:53;;;;;;;3.85;2.38;;;;;;;16.57;100.00;101923.84;4970206;28;20050;-76
2023/08/18 03:51:21;;;;;;;3.05;2.10;;;;;;;16.56;100.00;101920.31;4933012;28;20062;-76
2023/08/18 03:53:50;;;;;;;2.78;2.50;;;;;;;16.57;100.00;101915.88;4970749;28;20419;-77
2023/08/18 03:56:17;;;;;;;3.15;2.38;;;;;;;16.57;100.00;101913.22;4971419;28;20061;-76
2023/08/18 03:58:45;;;;;;;3.70;2.58;;;;;;;16.57;100.00;101919.41;4974152;28;20837;-77
2023/08/18 04:01:14;;;;;;;3.65;2.40;;;;;;;16.60;100.00;101921.19;4972760;28;20046;-76
2023/08/18 04:03:43;;;;;;;3.10;2.80;;;;;;;16.60;100.00;101930.91;5000310;28;20050;-76
2023/08/18 04:06:13;;;;;;;4.32;2.70;;;;;;;16.59;100.00;101927.38;4973186;28;20042;-76
2023/08/18 04:08:43;;;;;;;5.95;2.75;;;;;;;16.59;100.00;101923.84;4927360;28;20081;-76
2023/08/18 04:11:12;;;;;;;4.60;2.97;;;;;;;16.60;100.00;101918.53;4991515;28;20484;-76
2023/08/18 04:13:39;;;;;;;4.68;3.20;;;;;;;16.61;100.00;101917.63;4967182;28;20073;-77
2023/08/18 04:16:07;;;;;;;4.63;2.50;;;;;;;16.61;100.00;101917.63;4972895;28;20046;-76
2023/08/18 04:18:36;;;;;;;8.40;3.22;;;;;;;16.61;100.00;101914.97;4969189;28;20260;-76
2023/08/18 04:21:04;;;;;;;3.47;2.45;;;;;;;16.62;100.00;101905.22;4971265;28;20057;-76
2023/08/18 04:23:31;;;;;;;7.18;3.17;;;;;;;16.63;100.00;101910.50;4938096;28;20051;-76
2023/08/18 04:26:00;;;;;;;5.00;2.60;;;;;;;16.65;100.00;101902.53;4970331;28;20518;-76
2023/08/18 04:28:28;;;;;;;3.97;3.03;;;;;;;16.65;100.00;101903.41;4968468;28;20051;-76
2023/08/18 04:30:55;;;;;;;3.90;3.00;;;;;;;16.67;100.00;101906.06;4957737;28;20061;-76
2023/08/18 04:33:33;;;;;;;6.72;2.67;;;;;;;16.67;100.00;101898.06;4976477;28;20061;-76
2023/08/18 04:36:25;;;;;;;6.28;3.00;;;;;;;16.66;100.00;101896.31;4963623;28;20050;-77
2023/08/18 04:38:55;;;;;;;3.00;2.75;;;;;;;16.66;100.00;101898.97;4935495;28;20060;-76
2023/08/18 04:41:27;;;;;;;3.72;2.47;;;;;;;16.67;100.00;101906.06;4972223;28;20070;-76
2023/08/18 04:43:55;;;;;;;3.85;2.88;;;;;;;16.68;100.00;101902.53;4974425;28;20862;-76
2023/08/18 04:46:25;;;;;;;7.03;3.47;;;;;;;16.69;100.00;101905.19;4972608;28;20503;-76
2023/08/18 04:48:57;;;;;;;6.55;2.78;;;;;;;16.69;100.00;101898.94;4974295;28;20069;-76
2023/08/18 04:51:25;;;;;;;5.50;2.88;;;;;;;16.68;100.00;101898.06;4975392;28;20061;-77
2023/08/18 04:53:52;;;;;;;8.98;2.78;;;;;;;16.68;100.00;101889.22;4956613;28;22386;-77
2023/08/18 04:56:20;;;;;;;7.35;2.95;;;;;;;16.68;100.00;101897.19;4967066;28;20054;-77
2023/08/18 04:58:47;;;;;;;5.43;3.10;;;;;;;16.69;100.00;101906.94;4982044;28;20042;-76
2023/08/18 05:01:15;;;;;;;5.80;3.38;;;;;;;16.69;100.00;101896.28;4976792;28;20065;-76
2023/08/18 05:03:43;;;;;;;3.17;2.65;;;;;;;16.70;100.00;101900.72;4955878;28;20574;-76
2023/08/18 05:06:12;;;;;;;4.80;3.03;;;;;;;16.70;100.00;101896.28;4975121;28;20515;-76
2023/08/18 05:08:40;;;;;;;4.18;3.05;;;;;;;16.73;100.00;101901.59;4954779;28;21175;-76
2023/08/18 05:11:10;;;;;;;3.72;3.03;;;;;;;16.75;100.00;101898.94;4956144;28;20055;-76
2023/08/18 05:13:41;;;;;;;4.33;3.10;;;;;;;16.76;100.00;101906.00;4989523;28;20046;-77
2023/08/18 05:16:09;;;;;;;6.32;2.97;;;;;;;16.77;100.00;101898.03;4986024;28;20058;-76
2023/08/18 05:18:36;;;;;;;8.93;3.20;;;;;;;16.79;100.00;101899.81;4973222;28;20493;-76
2023/08/18 05:21:04;;;;;;;5.57;3.38;;;;;;;16.79;100.00;101899.81;4994307;28;20049;-75
2023/08/18 05:23:32;;;;;;;4.22;2.92;;;;;;;16.80;100.00;101912.22;4974131;28;20057;-75
2023/08/18 05:26:00;;;;;;;4.93;3.40;;;;;;;16.79;100.00;101899.81;4941477;28;20451;-76
2023/08/18 05:28:32;;;;;;;9.60;3.97;;;;;;;16.79;100.00;101902.47;4990327;28;20049;-77
2023/08/18 05:31:00;;;;;;;7.90;4.43;;;;;;;16.77;100.00;101908.66;4983226;28;20042;-77
2023/08/18 05:33:28;;;;;;;6.22;3.65;;;;;;;16.77;100.00;101908.66;4992072;28;20068;-76
2023/08/18 05:35:59;;;;;;;7.40;3.85;;;;;;;16.79;100.00;101910.44;4992553;28;20034;-77
2023/08/18 05:38:27;;;;;;;6.97;3.88;;;;;;;16.79;100.00;101902.47;4975034;28;20054;-77
2023/08/18 05:41:07;;;;;;;5.47;4.20;;;;;;;16.80;100.00;101906.88;4956138;28;20053;-76
2023/08/18 05:43:38;;;;;;;4.40;4.07;;;;;;;16.80;100.00;101901.56;4989836;28;20041;-76
2023/08/18 05:46:07;;;;;;;7.68;4.38;;;;;;;16.80;100.00;101891.78;4973743;28;20042;-76
2023/08/18 05:48:35;;;;;;;7.65;4.38;;;;;;;16.81;100.00;101887.38;4965700;28;20054;-77
2023/08/18 05:51:03;;;;;;;4.18;3.78;;;;;;;16.84;100.00;101888.28;4992968;28;20069;-76
2023/08/18 05:53:31;;;;;;;7.60;3.78;;;;;;;16.86;100.00;101889.16;4972166;28;20054;-76
2023/08/18 05:55:59;;;;;;;6.95;4.53;;;;;;;16.90;100.00;101889.97;4974304;28;20050;-76
2023/08/18 05:58:26;;;;;;;5.28;4.00;;;;;;;16.90;100.00;101896.22;4935372;28;20059;-76
2023/08/18 06:00:54;;;;;;;9.38;4.57;;;;;;;16.91;100.00;101889.97;4989896;28;20081;-75
2023/08/18 06:03:21;;;;;;;6.18;4.15;;;;;;;16.92;100.00;101890.88;5009667;28;20057;-75
2023/08/18 06:05:49;;;;;;;6.25;4.45;;;;;;;16.94;100.00;101889.09;5004834;28;20058;-76
2023/08/18 06:08:17;;;;;;;5.53;3.55;;;;;;;16.96;100.00;101895.28;4989917;28;20050;-76
2023/08/18 06:10:46;;;;;;;6.63;4.00;;;;;;;17.01;100.00;101905.91;4987824;28;20053;-76
2023/08/18 06:13:14;;;;;;;8.77;4.53;;;;;;;17.00;100.00;101897.03;4941921;28;20046;-76
2023/08/18 06:15:42;;;;;;;5.18;3.50;;;;;;;17.02;100.00;101897.91;5004383;28;20081;-76
2023/08/18 06:18:10;;;;;;;6.18;3.83;;;;;;;17.07;100.00;101897.84;4984227;28;20049;-76
2023/08/18 06:20:37;;;;;;;4.70;4.20;;;;;;;17.08;100.00;101897.84;4989976;28;20086;-77
2023/08/18 06:23:04;;;;;;;9.63;5.00;;;;;;;17.12;100.00;101896.06;4974202;28;20058;-76
2023/08/18 06:25:32;;;;;;;8.20;4.85;;;;;;;17.12;100.00;101894.25;4972089;28;20050;-76
2023/08/18 06:27:59;;;;;;;9.27;4.88;;;;;;;17.13;100.00;101896.03;4956219;28;20042;-76
2023/08/18 06:30:26;;;;;;;6.70;4.13;;;;;;;17.14;100.00;101905.81;4991184;28;20058;-77
2023/08/18 06:32:54;;;;;;;6.82;4.30;;;;;;;17.18;100.00;101892.47;5005440;28;20046;-76
2023/08/18 06:35:21;;;;;;;8.40;5.15;;;;;;;17.20;100.00;101893.31;4968823;28;20054;-77
2023/08/18 06:37:49;;;;;;;7.18;4.43;;;;;;;17.19;100.00;101879.13;4987365;28;20050;-77
2023/08/18 06:40:16;;;;;;;11.30;4.82;;;;;;;17.24;100.00;101890.66;4985687;28;20053;-75
2023/08/18 06:42:43;;;;;;;6.38;5.03;;;;;;;17.30;100.00;101889.72;4957180;28;20446;-75
2023/08/18 06:45:11;;;;;;;9.02;5.60;;;;;;;17.30;100.00;101885.25;4973532;28;20035;-75
2023/08/18 06:47:38;;;;;;;8.43;5.28;;;;;;;17.31;100.00;101887.00;4971300;28;20035;-75
2023/08/18 06:50:06;;;;;;;10.63;5.15;;;;;;;17.34;100.00;101888.78;4964946;28;20054;-75
2023/08/18 06:52:33;;;;;;;8.27;5.25;;;;;;;17.36;100.00;101889.66;4954978;28;20054;-76
2023/08/18 06:55:04;;;;;;;9.55;4.85;;;;;;;17.37;100.00;101885.19;4972183;28;20034;-76
2023/08/18 06:57:32;;;;;;;8.90;5.28;;;;;;;17.40;100.00;101886.06;4967008;28;20512;-76
2023/08/18 07:00:00;;;;;;;8.82;4.93;;;;;;;17.44;100.00;101884.25;4929698;28;20058;-76
2023/08/18 07:02:27;;;;;;;10.10;5.28;;;;;;;17.45;100.00;101884.25;4967072;28;20062;-76
2023/08/18 07:04:55;;;;;;;8.85;5.30;;;;;;;17.47;100.00;101879.78;4977333;28;20046;-76
2023/08/18 07:07:23;;;;;;;9.65;5.47;;;;;;;17.47;100.00;101882.44;4963952;28;20050;-76
2023/08/18 07:09:50;;;;;;;7.22;5.00;;;;;;;17.48;100.00;101900.19;4970801;28;20061;-76
2023/08/18 07:12:18;;;;;;;11.48;6.05;;;;;;;17.46;100.00;101888.66;4972718;28;20054;-76
2023/08/18 07:14:45;;;;;;;7.75;5.65;;;;;;;17.45;100.00;101891.38;4931068;28;20432;-76
2023/08/18 07:17:12;;;;;;;10.40;6.07;;;;;;;17.45;100.00;101883.38;4972388;28;20030;-76
2023/08/18 07:19:39;;;;;;;10.63;6.20;;;;;;;17.49;100.00;101903.75;4969941;28;20046;-76
2023/08/18 07:22:07;;;;;;;10.25;6.03;;;;;;;17.50;100.00;101901.09;4969027;28;20057;-77
2023/08/18 07:24:35;;;;;;;10.00;5.60;;;;;;;17.51;100.00;101897.50;4969341;28;20401;-75
2023/08/18 07:27:03;;;;;;;8.32;5.07;;;;;;;17.53;100.00;101905.50;4972589;28;20039;-76
2023/08/18 07:29:33;;;;;;;8.55;5.70;;;;;;;17.54;100.00;101908.16;4971242;28;20070;-76
2023/08/18 07:32:01;;;;;;;8.68;5.95;;;;;;;17.57;100.00;101911.69;4932942;28;20058;-76
2023/08/18 07:34:29;;;;;;;10.90;5.80;;;;;;;17.53;100.00;101906.38;5002921;28;20519;-75
2023/08/18 07:36:56;;;;;;;11.07;5.22;;;;;;;17.56;100.00;101904.56;4979204;28;20535;-76
2023/08/18 07:39:24;;;;;;;8.45;5.47;;;;;;;17.59;100.00;101913.44;4971203;28;20066;-75
2023/08/18 07:41:52;;;;;;;8.63;5.78;;;;;;;17.62;100.00;101910.75;4971985;28;20047;-75
2023/08/18 07:44:19;;;;;;;8.15;6.05;;;;;;;17.64;100.00;101905.41;4971875;28;20054;-76
2023/08/18 07:46:46;;;;;;;7.85;5.97;;;;;;;17.63;100.00;101899.16;4930751;28;20771;-76
2023/08/18 07:49:14;;;;;;;11.13;5.93;;;;;;;17.61;100.00;101892.09;4956285;28;20042;-76
2023/08/18 07:51:42;;;;;;;12.43;6.10;;;;;;;17.62;100.00;101888.56;4958614;28;20061;-75
2023/08/18 07:54:10;;;;;;;12.85;6.40;;;;;;;17.62;100.00;101884.09;4988988;28;20163;-75
2023/08/18 07:56:37;;;;;;;6.55;5.85;;;;;;;17.62;100.00;101889.44;4969932;28;20046;-76
2023/08/18 07:59:05;;;;;;;7.05;5.55;;;;;;;17.63;100.00;101887.63;5003957;28;20049;-75
2023/08/18 08:01:34;;;;;;;9.10;6.00;;;;;;;17.64;100.00;101890.28;4999927;28;20121;-75
2023/08/18 08:04:01;;;;;;;7.20;5.40;;;;;;;17.66;100.00;101885.81;4948755;28;20658;-75
2023/08/18 08:06:29;;;;;;;11.63;5.82;;;;;;;17.68;100.00;101883.16;4980964;28;20420;-75
2023/08/18 08:08:58;;;;;;;7.78;6.18;;;;;;;17.71;100.00;101878.69;4959537;28;20049;-75
2023/08/18 08:11:25;;;;;;;11.52;7.15;;;;;;;17.73;100.00;101889.31;4973739;28;20046;-75
2023/08/18 08:13:52;;;;;;;8.40;6.13;;;;;;;17.73;100.00;101890.22;4970049;28;20054;-74
2023/08/18 08:16:20;;;;;;;15.73;7.05;;;;;;;17.78;100.00;101889.28;4970202;28;20054;-75
2023/08/18 08:18:47;;;;;;;7.32;5.82;;;;;;;17.82;100.00;101889.22;4928256;28;20050;-75
2023/08/18 08:21:15;;;;;;;10.25;5.93;;;;;;;17.84;100.00;101883.88;4986955;28;20054;-75
2023/08/18 08:23:43;;;;;;;8.27;6.25;;;;;;;17.87;100.00;101883.88;5000508;28;20807;-76
2023/08/18 08:26:15;;;;;;;9.32;5.18;;;;;;;17.89;100.00;101880.28;4949450;28;20058;-76
2023/08/18 08:28:44;;;;;;;11.90;5.15;;;;;;;17.96;100.00;101880.22;4967879;28;20082;-75
2023/08/18 08:31:11;;;;;;;12.40;5.18;;;;;;;18.01;100.00;101886.38;4971569;28;20058;-76
2023/08/18 08:33:39;;;;;;;8.13;3.95;;;;;;;18.04;100.00;101886.38;4969203;28;20050;-76
2023/08/18 08:36:06;;;;;;;6.13;4.47;;;;;;;18.06;100.00;101887.22;4933469;28;20050;-76
2023/08/18 08:38:33;;;;;;;5.43;4.28;;;;;;;18.08;100.00;101888.97;4984065;28;20169;-76
2023/08/18 08:41:01;;;;;;;8.10;4.20;;;;;;;18.13;100.00;101891.59;5003725;28;20054;-75
2023/08/18 08:43:28;;;;;;;4.68;3.65;;;;;;;18.13;100.00;101891.59;4970839;28;20061;-75
2023/08/18 08:45:58;;;;;;;11.00;5.38;;;;;;;18.15;100.00;101887.13;4971009;28;20455;-75
2023/08/18 08:48:40;;;;;;;6.38;4.30;;;;;;;18.14;100.00;101892.47;4970449;28;20054;-75
2023/08/18 08:51:11;;;;;;;7.25;4.15;;;;;;;18.16;100.00;101885.34;4933579;28;20417;-75
2023/08/18 08:53:53;;;;;;;9.70;4.47;;;;;;;18.19;100.00;101893.31;4975878;28;20046;-75
2023/08/18 08:56:26;;;;;;;6.80;4.68;;;;;;;18.21;100.00;101895.03;4982826;28;20065;-76
2023/08/18 08:58:55;;;;;;;9.45;4.35;;;;;;;18.25;100.00;101890.56;4988006;28;20396;-76
2023/08/18 09:01:23;;;;;;;7.60;4.13;;;;;;;18.31;100.00;101886.00;4973093;28;20046;-77
2023/08/18 09:03:51;;;;;;;8.98;3.72;;;;;;;18.39;100.00;101879.72;4985290;28;20416;-76
2023/08/18 09:06:18;;;;;;;9.75;4.03;;;;;;;18.47;100.00;101875.16;4949362;28;20055;-76
2023/08/18 09:08:48;;;;;;;7.43;4.45;;;;;;;18.58;100.00;101861.66;4985170;28;21051;-76
2023/08/18 09:11:15;;;;;;;6.07;4.05;;;;;;;18.69;100.00;101862.38;4995721;28;20058;-76
2023/08/18 09:13:42;;;;;;;9.35;4.40;;;;;;;18.75;100.00;101866.75;4994360;28;20054;-75
2023/08/18 09:16:10;;;;;;;4.97;4.05;;;;;;;18.76;100.00;101865.88;4971925;28;20050;-76
2023/08/18 09:18:37;;;;;;;8.07;3.65;;;;;;;18.79;100.00;101872.03;4968138;28;20046;-76
2023/08/18 09:21:06;;;;;;;6.43;4.15;;;;;;;18.88;100.00;101866.59;4948713;28;20054;-76
2023/08/18 09:23:34;;;;;;;6.07;3.67;;;;;;;18.95;100.00;101871.84;4985303;28;20065;-75
2023/08/18 09:26:01;;;;;;;7.85;4.07;;;;;;;18.99;100.00;101866.41;4977458;28;20053;-75
2023/08/18 09:28:29;;;;;;;6.90;3.92;;;;;;;19.03;100.00;101864.59;4972320;28;20046;-75
2023/08/18 09:30:56;;;;;;;5.32;4.18;;;;;;;19.07;100.00;101861.84;4972767;28;20255;-76
2023/08/18 09:33:26;;;;;;;6.90;3.70;;;;;;;19.11;100.00;101867.13;4973681;28;20050;-76
2023/08/18 09:35:59;;;;;;;5.13;3.78;;;;;;;19.12;100.00;101856.41;4939425;28;20062;-76
2023/08/18 09:38:27;;;;;;;4.93;3.85;;;;;;;19.17;100.00;101861.69;4984695;28;20503;-76
2023/08/18 09:41:03;;;;;;;6.60;3.88;;;;;;;19.22;100.00;101852.69;4966444;28;20042;-76
2023/08/18 09:43:30;;;;;;;6.15;3.40;;;;;;;19.35;100.00;101858.69;4973184;28;20050;-75
2023/08/18 09:45:58;;;;;;;6.50;3.50;;;;;;;19.47;100.00;101860.31;4987910;28;20050;-76
2023/08/18 09:48:26;;;;;;;10.27;3.63;;;;;;;19.61;100.00;101860.91;4969251;28;20065;-76
2023/08/18 09:50:57;;;;;;;7.10;3.63;;;;;;;19.66;100.00;101855.50;4973189;28;20057;-75
2023/08/18 09:53:29;;;;;;;7.45;3.67;;;;;;;19.72;100.00;101850.06;4967219;28;20049;-76
2023/08/18 09:56:13;;;;;;;8.85;3.70;;;;;;;19.80;100.00;101848.09;5003275;28;20046;-76
2023/08/18 09:59:01;;;;;;;5.35;4.10;;;;;;;19.88;100.00;101834.59;4960207;28;20039;-77
2023/08/18 10:01:30;;;;;;;5.82;3.40;;;;;;;20.01;100.00;101843.25;4972416;28;20057;-77
2023/08/18 10:03:58;;;;;;;5.32;3.45;;;;;;;20.12;100.00;101832.34;4988884;28;20497;-76
2023/08/18 10:06:27;;;;;;;7.07;3.38;;;;;;;20.28;100.00;101838.22;4990248;28;20531;-76
2023/08/18 10:08:56;;;;;;;5.55;3.38;;;;;;;20.41;100.00;101826.34;4933693;28;20043;-77
2023/08/18 10:11:24;;;;;;;4.68;3.58;;;;;;;20.51;100.00;101825.25;4970136;28;20520;-76
2023/08/18 10:13:58;;;;;;;4.82;3.00;;;;;;;20.60;100.00;101824.16;4969824;28;20042;-76
2023/08/18 10:16:26;;;;;;;3.33;3.00;;;;;;;20.74;100.00;101821.19;4972103;28;20054;-75
2023/08/18 10:18:55;;;;;;;4.57;3.70;;;;;;;20.80;100.00;101821.03;4971664;28;20043;-75
2023/08/18 10:21:23;;;;;;;5.90;3.60;;;;;;;20.80;100.00;101815.66;4972483;28;20043;-75
2023/08/18 10:23:52;;;;;;;7.03;3.50;;;;;;;20.84;100.00;101822.69;4945963;28;23246;-76
2023/08/18 10:26:22;;;;;;;7.18;3.65;;;;;;;20.88;100.00;101810.13;4966851;28;20057;-76
2023/08/18 10:28:51;;;;;;;5.65;3.60;;;;;;;20.90;100.00;101810.97;4971185;28;20049;-76
2023/08/18 10:31:20;;;;;;;6.45;3.10;;;;;;;20.99;100.00;101816.97;4990710;28;20047;-75
2023/08/18 10:33:49;;;;;;;7.70;3.70;;;;;;;21.09;100.00;101827.47;4971919;28;20050;-76
2023/08/18 10:36:21;;;;;;;4.32;3.33;;;;;;;21.09;100.00;101824.78;4973368;28;20053;-76
2023/08/18 10:38:48;;;;;;;4.57;3.85;;;;;;;21.15;100.00;101843.38;4933961;28;22329;-77
2023/08/18 10:41:24;;;;;;;4.25;3.38;;;;;;;21.10;100.00;101824.75;4991447;28;20528;-76
2023/08/18 10:43:56;;;;;;;7.78;3.72;;;;;;;21.09;100.00;101820.28;4995004;28;20212;-75
2023/08/18 10:46:36;;;;;;;5.75;3.20;;;;;;;21.17;100.00;101821.00;4972811;28;20519;-75
2023/08/18 10:49:04;;;;;;;4.32;3.75;;;;;;;21.27;100.00;101816.28;4974689;28;20058;-75
2023/08/18 10:51:32;;;;;;;5.32;4.05;;;;;;;21.42;100.00;101810.50;4971537;28;20065;-76
2023/08/18 10:54:00;;;;;;;5.65;3.63;;;;;;;21.52;100.00;101808.47;4973814;28;20050;-77
2023/08/18 10:56:29;;;;;;;6.15;4.55;;;;;;;21.54;100.00;101803.06;4944245;28;20053;-76
2023/08/18 10:58:56;;;;;;;5.63;4.13;;;;;;;21.59;100.00;101802.03;4973098;28;20460;-76
2023/08/18 11:01:24;;;;;;;6.70;4.30;;;;;;;21.60;100.00;101797.53;4979781;28;20057;-76
2023/08/18 11:03:51;;;;;;;7.72;3.65;;;;;;;21.68;100.00;101800.91;4986964;28;20049;-76
2023/08/18 11:06:19;;;;;;;8.18;4.10;;;;;;;21.77;100.00;101791.69;4973168;28;20492;-76
2023/08/18 11:08:47;;;;;;;6.25;5.13;;;;;;;21.74;100.00;101790.00;4987731;28;20057;-76
2023/08/18 11:11:15;;;;;;;5.90;4.10;;;;;;;21.80;100.00;101786.25;4949375;28;20057;-77
2023/08/18 11:13:44;;;;;;;8.02;5.45;;;;;;;21.87;100.00;101786.94;5001724;28;20528;-76
2023/08/18 11:16:11;;;;;;;7.38;5.68;;;;;;;21.80;100.00;101784.44;4980014;28;20053;-76
2023/08/18 11:18:41;;;;;;;6.32;5.18;;;;;;;21.80;100.00;101770.16;4992946;28;20058;-76
2023/08/18 11:21:09;;;;;;;8.05;5.30;;;;;;;21.84;100.00;101774.50;4973322;28;20054;-76
2023/08/18 11:23:36;;;;;;;7.20;5.50;;;;;;;21.86;100.00;101767.28;4947901;28;20055;-76
2023/08/18 11:26:04;;;;;;;7.65;5.38;;;;;;;21.86;100.00;101775.34;4984336;28;20054;-76